createdAt,value
2017-12-21T00:00:38.669Z,21.90
2017-12-21T00:03:07.006Z,22.27
2017-12-21T00:05:35.409Z,23.27
2017-12-21T00:08:04.664Z,20.23
2017-12-21T00:10:33.014Z,22.60
2017-12-21T00:13:01.461Z,22.73
2017-12-21T00:15:30.824Z,23.30
2017-12-21T00:17:59.490Z,22.43
2017-12-21T00:20:27.859Z,25.17
2017-12-21T00:22:56.193Z,23.57
2017-12-21T00:25:24.647Z,23.13
2017-12-21T00:27:53.057Z,23.00
2017-12-21T00:30:21.449Z,25.13
2017-12-21T00:32:49.805Z,24.60
2017-12-21T00:35:18.285Z,23.87
2017-12-21T00:37:46.612Z,26.10
2017-12-21T00:40:14.987Z,25.53
2017-12-21T00:42:43.401Z,24.30
2017-12-21T00:45:11.719Z,25.00
2017-12-21T00:47:40.151Z,25.00
2017-12-21T00:50:08.801Z,24.67
2017-12-21T00:52:37.150Z,25.60
2017-12-21T00:55:05.501Z,25.47
2017-12-21T00:57:33.837Z,23.20
2017-12-21T01:00:02.227Z,22.20
2017-12-21T01:02:30.592Z,24.87
2017-12-21T01:04:59.051Z,24.97
2017-12-21T01:07:27.384Z,25.00
2017-12-21T01:09:55.746Z,26.73
2017-12-21T01:12:24.076Z,26.67
2017-12-21T01:14:52.453Z,23.90
2017-12-21T01:17:20.795Z,24.20
2017-12-21T01:19:49.108Z,25.13
2017-12-21T01:22:17.449Z,24.20
2017-12-21T01:24:45.808Z,25.27
2017-12-21T01:27:14.124Z,26.33
2017-12-21T01:29:42.520Z,25.00
2017-12-21T01:32:10.885Z,24.13
2017-12-21T01:34:39.505Z,24.13
2017-12-21T01:37:07.917Z,25.13
2017-12-21T01:39:36.247Z,26.70
2017-12-21T01:42:04.649Z,22.77
2017-12-21T01:44:33.003Z,26.43
2017-12-21T01:47:01.354Z,25.40
2017-12-21T01:49:29.675Z,24.43
2017-12-21T01:51:58.013Z,23.90
2017-12-21T01:54:26.406Z,22.23
2017-12-21T01:56:54.763Z,21.40
2017-12-21T01:59:23.104Z,21.50
2017-12-21T02:01:51.480Z,21.33
2017-12-21T02:04:19.986Z,22.53
2017-12-21T02:06:48.292Z,19.70
2017-12-21T02:09:16.628Z,19.07
2017-12-21T02:11:44.979Z,19.40
2017-12-21T02:14:13.314Z,22.00
2017-12-21T02:16:41.668Z,20.30
2017-12-21T02:19:10.133Z,23.60
2017-12-21T02:21:38.513Z,23.00
2017-12-21T02:24:06.837Z,20.90
2017-12-21T02:26:35.248Z,20.83
2017-12-21T02:29:03.575Z,19.00
2017-12-21T02:31:31.938Z,20.60
2017-12-21T02:34:00.309Z,20.90
2017-12-21T02:36:28.667Z,21.40
2017-12-21T02:38:57.032Z,23.00
2017-12-21T02:41:25.409Z,21.93
2017-12-21T02:43:53.765Z,21.00
2017-12-21T02:46:22.108Z,20.10
2017-12-21T02:48:50.459Z,21.60
2017-12-21T02:51:18.826Z,21.00
2017-12-21T02:53:47.250Z,20.90
2017-12-21T02:56:15.582Z,19.83
2017-12-21T02:58:43.917Z,18.57
2017-12-21T03:01:12.265Z,20.10
2017-12-21T03:03:40.593Z,21.03
2017-12-21T03:06:09.016Z,20.80
2017-12-21T03:08:37.344Z,20.90
2017-12-21T03:11:05.675Z,21.47
2017-12-21T03:13:34.010Z,21.40
2017-12-21T03:16:02.338Z,19.30
2017-12-21T03:18:30.708Z,22.27
2017-12-21T03:20:59.059Z,19.80
2017-12-21T03:23:27.381Z,17.73
2017-12-21T03:25:55.985Z,20.40
2017-12-21T03:28:24.303Z,19.70
2017-12-21T03:30:52.678Z,20.90
2017-12-21T03:33:22.569Z,19.67
2017-12-21T03:35:51.007Z,20.17
2017-12-21T03:38:19.372Z,19.80
2017-12-21T03:40:47.786Z,19.00
2017-12-21T03:43:16.162Z,21.80
2017-12-21T03:45:44.527Z,22.70
2017-12-21T03:48:12.843Z,22.00
2017-12-21T03:50:41.244Z,19.07
2017-12-21T03:53:09.930Z,18.33
2017-12-21T03:55:39.502Z,18.67
2017-12-21T03:58:07.878Z,19.67
2017-12-21T04:00:36.314Z,17.30
2017-12-21T04:03:04.673Z,17.47
2017-12-21T04:05:33.685Z,17.73
2017-12-21T04:08:02.047Z,18.00
2017-12-21T04:10:30.412Z,17.50
2017-12-21T04:12:59.473Z,18.33
2017-12-21T04:15:27.855Z,18.20
2017-12-21T04:17:56.198Z,17.80
2017-12-21T04:20:24.598Z,16.50
2017-12-21T04:22:52.950Z,17.20
2017-12-21T04:25:21.330Z,15.37
2017-12-21T04:27:49.705Z,16.13
2017-12-21T04:30:18.065Z,18.17
2017-12-21T04:32:46.452Z,16.17
2017-12-21T04:35:14.821Z,18.77
2017-12-21T04:37:43.177Z,18.40
2017-12-21T04:40:11.512Z,17.97
2017-12-21T04:42:39.874Z,18.30
2017-12-21T04:45:08.221Z,17.77
2017-12-21T04:47:36.575Z,17.80
2017-12-21T04:50:05.333Z,19.23
2017-12-21T04:52:33.670Z,17.47
2017-12-21T04:55:02.117Z,17.10
2017-12-21T04:57:30.480Z,17.93
2017-12-21T04:59:58.836Z,16.60
2017-12-21T05:02:27.278Z,16.03
2017-12-21T05:04:55.603Z,17.27
2017-12-21T05:07:23.960Z,16.73
2017-12-21T05:09:52.584Z,18.20
2017-12-21T05:12:20.905Z,16.67
2017-12-21T05:14:49.493Z,16.07
2017-12-21T05:17:17.857Z,18.43
2017-12-21T05:19:46.252Z,16.60
2017-12-21T05:22:14.598Z,19.63
2017-12-21T05:24:44.493Z,17.30
2017-12-21T05:27:12.884Z,16.70
2017-12-21T05:29:41.769Z,16.10
2017-12-21T05:32:10.308Z,16.53
2017-12-21T05:34:39.718Z,17.33
2017-12-21T05:37:08.188Z,15.50
2017-12-21T05:39:39.372Z,15.10
2017-12-21T05:42:07.767Z,16.77
2017-12-21T05:44:36.163Z,16.17
2017-12-21T05:47:04.511Z,16.70
2017-12-21T05:49:32.874Z,17.40
2017-12-21T05:52:01.213Z,16.10
2017-12-21T05:54:29.625Z,15.53
2017-12-21T05:56:58.014Z,14.30
2017-12-21T05:59:26.357Z,13.00
2017-12-21T06:01:54.840Z,16.37
2017-12-21T06:04:23.521Z,14.83
2017-12-21T06:06:54.824Z,15.00
2017-12-21T06:09:23.338Z,13.63
2017-12-21T06:11:51.915Z,15.97
2017-12-21T06:14:22.133Z,13.97
2017-12-21T06:16:50.607Z,15.60
2017-12-21T06:19:19.029Z,14.10
2017-12-21T06:21:47.826Z,13.30
2017-12-21T06:24:16.488Z,14.97
2017-12-21T06:26:44.959Z,16.00
2017-12-21T06:29:14.281Z,14.07
2017-12-21T06:31:42.951Z,14.13
2017-12-21T06:34:15.246Z,14.10
2017-12-21T06:36:43.744Z,15.57
2017-12-21T06:39:15.967Z,16.00
2017-12-21T06:41:44.620Z,14.87
2017-12-21T06:44:13.150Z,14.47
2017-12-21T06:46:41.635Z,14.10
2017-12-21T06:49:10.204Z,13.40
2017-12-21T06:51:39.854Z,14.57
2017-12-21T06:54:08.997Z,14.60
2017-12-21T06:56:44.353Z,16.60
2017-12-21T06:59:13.072Z,19.60
2017-12-21T07:01:41.563Z,17.67
2017-12-21T07:04:10.050Z,16.60
2017-12-21T07:06:38.480Z,14.40
2017-12-21T07:09:06.879Z,16.20
2017-12-21T07:11:35.624Z,14.10
2017-12-21T07:14:04.088Z,13.80
2017-12-21T07:16:40.582Z,11.90
2017-12-21T07:19:09.973Z,16.37
2017-12-21T07:21:38.554Z,12.50
2017-12-21T07:24:07.339Z,13.57
2017-12-21T07:26:35.790Z,15.00
2017-12-21T07:29:04.120Z,13.70
2017-12-21T07:31:33.444Z,11.73
2017-12-21T07:34:03.953Z,11.03
2017-12-21T07:36:34.162Z,10.50
2017-12-21T07:39:03.498Z,10.10
2017-12-21T07:41:32.923Z,11.27
2017-12-21T07:44:01.474Z,12.17
2017-12-21T07:46:29.857Z,12.20
2017-12-21T07:48:58.294Z,12.90
2017-12-21T07:51:26.623Z,8.70
2017-12-21T07:53:55.012Z,10.30
2017-12-21T07:56:23.708Z,11.10
2017-12-21T07:58:52.303Z,11.13
2017-12-21T08:01:20.727Z,9.40
2017-12-21T08:03:55.710Z,10.20
2017-12-21T08:08:59.785Z,10.47
2017-12-21T08:11:28.635Z,9.50
2017-12-21T08:13:57.102Z,9.30
2017-12-21T08:16:27.759Z,7.67
2017-12-21T08:18:56.730Z,8.43
2017-12-21T08:21:26.473Z,8.30
2017-12-21T08:23:55.071Z,7.17
2017-12-21T08:26:25.556Z,7.73
2017-12-21T08:28:54.931Z,7.13
2017-12-21T08:31:25.119Z,6.83
2017-12-21T08:33:53.759Z,6.07
2017-12-21T08:36:22.168Z,7.10
2017-12-21T08:38:53.826Z,6.00
2017-12-21T08:41:23.522Z,5.63
2017-12-21T08:43:52.232Z,5.90
2017-12-21T08:46:21.028Z,5.40
2017-12-21T08:48:50.699Z,5.20
2017-12-21T08:51:19.147Z,4.40
2017-12-21T08:53:49.808Z,4.30
2017-12-21T08:56:18.485Z,5.40
2017-12-21T09:04:14.306Z,6.27
2017-12-21T09:06:45.798Z,5.20
2017-12-21T09:09:15.905Z,7.07
2017-12-21T09:14:29.532Z,5.20
2017-12-21T09:17:04.343Z,4.60
2017-12-21T13:07:03.943Z,3.10
2017-12-21T13:12:10.847Z,3.47
2017-12-21T13:27:56.270Z,3.87
2017-12-21T13:48:40.913Z,3.50
2017-12-21T13:56:21.456Z,3.20
2017-12-21T14:01:25.155Z,3.30
2017-12-21T14:12:12.370Z,5.07
2017-12-21T14:14:43.395Z,2.80
2017-12-21T14:19:45.260Z,3.93
2017-12-21T14:22:15.497Z,4.00
2017-12-21T14:24:46.617Z,3.10
2017-12-21T14:27:15.510Z,3.43
2017-12-21T14:29:44.188Z,4.60
2017-12-21T14:32:13.839Z,3.83
2017-12-21T14:34:43.626Z,4.27
2017-12-21T14:37:13.491Z,4.23
2017-12-21T14:39:44.839Z,4.50
2017-12-21T14:42:16.015Z,5.40
2017-12-21T14:44:44.656Z,5.73
2017-12-21T14:47:13.082Z,5.00
2017-12-21T14:49:43.101Z,4.60
2017-12-21T14:52:11.449Z,5.80
2017-12-21T14:54:39.896Z,5.23
2017-12-21T14:57:08.417Z,5.07
2017-12-21T14:59:37.716Z,4.87
2017-12-21T15:02:06.348Z,5.30
2017-12-21T15:04:34.812Z,4.90
2017-12-21T15:07:05.484Z,6.60
2017-12-21T15:09:40.572Z,6.77
2017-12-21T15:12:09.079Z,7.47
2017-12-21T15:14:37.425Z,6.00
2017-12-21T15:17:06.584Z,6.00
2017-12-21T15:19:35.081Z,4.80
2017-12-21T15:22:03.786Z,7.07
2017-12-21T15:24:32.192Z,6.13
2017-12-21T15:27:14.026Z,6.97
2017-12-21T15:29:42.440Z,6.60
2017-12-21T15:32:11.734Z,8.80
2017-12-21T15:34:40.302Z,5.63
2017-12-21T15:37:08.710Z,7.97
2017-12-21T15:39:37.084Z,6.77
2017-12-21T15:42:05.557Z,8.53
2017-12-21T15:44:33.955Z,6.50
2017-12-21T15:47:03.492Z,6.90
2017-12-21T15:49:32.073Z,6.43
2017-12-21T15:52:01.245Z,6.33
2017-12-21T15:54:30.066Z,8.30
2017-12-21T15:56:58.463Z,7.17
2017-12-21T15:59:28.482Z,7.60
2017-12-21T16:04:29.797Z,6.67
2017-12-21T16:06:58.181Z,7.53
2017-12-21T16:09:26.573Z,7.37
2017-12-21T16:11:54.916Z,7.03
2017-12-21T16:14:23.868Z,7.43
2017-12-21T16:16:52.561Z,7.10
2017-12-21T16:19:21.452Z,8.33
2017-12-21T16:21:49.978Z,7.57
2017-12-21T16:24:18.446Z,8.20
2017-12-21T16:26:46.928Z,8.33
2017-12-21T16:29:15.798Z,7.50
2017-12-21T16:31:51.235Z,8.90
2017-12-21T16:34:19.744Z,7.37
2017-12-21T16:36:48.162Z,6.83
2017-12-21T16:39:16.692Z,8.30
2017-12-21T16:41:47.405Z,7.97
2017-12-21T16:44:18.889Z,9.33
2017-12-21T16:46:47.805Z,8.87
2017-12-21T16:49:16.205Z,9.47
2017-12-21T16:51:45.557Z,8.10
2017-12-21T16:54:14.000Z,7.33
2017-12-21T16:56:42.408Z,7.83
2017-12-21T16:59:14.988Z,10.17
2017-12-21T17:01:43.340Z,9.20
2017-12-21T17:04:12.327Z,9.43
2017-12-21T17:06:42.811Z,8.97
2017-12-21T17:09:12.240Z,11.03
2017-12-21T17:11:40.641Z,9.87
2017-12-21T17:14:10.078Z,8.60
2017-12-21T17:16:39.902Z,9.63
2017-12-21T17:19:08.274Z,9.07
2017-12-21T17:21:36.801Z,9.40
2017-12-21T17:24:05.141Z,9.93
2017-12-21T17:26:35.545Z,10.47
2017-12-21T17:29:03.988Z,11.17
2017-12-21T17:31:32.445Z,10.00
2017-12-21T17:34:01.662Z,9.40
2017-12-21T17:36:30.200Z,9.40
2017-12-21T17:38:58.698Z,9.03
2017-12-21T17:41:27.073Z,8.10
2017-12-21T17:46:30.314Z,9.13
2017-12-21T17:48:58.764Z,9.73
2017-12-21T17:51:27.233Z,9.70
2017-12-21T17:53:55.916Z,8.83
2017-12-21T17:56:24.868Z,9.30
2017-12-21T17:58:53.281Z,9.07
2017-12-21T18:01:21.977Z,7.97
2017-12-21T18:03:52.660Z,10.27
2017-12-21T18:06:24.559Z,9.70
2017-12-21T18:08:52.936Z,10.20
2017-12-21T18:11:21.353Z,9.43
2017-12-21T18:13:49.767Z,9.73
2017-12-21T18:16:18.439Z,10.30
2017-12-21T18:21:21.390Z,9.90
2017-12-21T18:23:49.856Z,11.00
2017-12-21T18:26:18.668Z,10.67
2017-12-21T18:28:47.409Z,12.37
2017-12-21T18:31:15.802Z,11.93
2017-12-21T18:33:44.232Z,11.50
2017-12-21T18:36:13.717Z,11.97
2017-12-21T18:38:42.449Z,13.30
2017-12-21T18:41:11.090Z,12.47
2017-12-21T18:43:40.225Z,12.23
2017-12-21T18:46:08.754Z,11.47
2017-12-21T18:48:37.205Z,12.70
2017-12-21T18:51:05.706Z,11.23
2017-12-21T18:53:34.181Z,13.60
2017-12-21T18:56:03.119Z,11.77
2017-12-21T18:58:31.514Z,11.63
2017-12-21T19:03:53.054Z,11.50
2017-12-21T19:06:21.427Z,11.30
2017-12-21T19:08:49.788Z,12.80
2017-12-21T19:11:18.184Z,14.17
2017-12-21T19:13:46.588Z,13.80
2017-12-21T19:16:15.005Z,10.97
2017-12-21T19:18:43.481Z,11.90
2017-12-21T19:21:12.578Z,12.70
2017-12-21T19:23:40.922Z,12.30
2017-12-21T19:26:09.389Z,13.83
2017-12-21T19:28:37.858Z,13.30
2017-12-21T19:31:06.621Z,13.17
2017-12-21T19:33:35.177Z,14.47
2017-12-21T19:36:03.812Z,13.63
2017-12-21T19:38:32.175Z,14.40
2017-12-21T19:41:03.517Z,13.70
2017-12-21T19:43:31.857Z,15.20
2017-12-21T19:46:00.208Z,13.43
2017-12-21T19:48:29.075Z,12.70
2017-12-21T19:50:57.729Z,14.03
2017-12-21T19:53:26.161Z,14.70
2017-12-21T19:55:54.719Z,14.70
2017-12-21T19:58:23.070Z,14.40
2017-12-21T20:00:51.484Z,16.10
2017-12-21T20:03:19.969Z,14.03
2017-12-21T20:05:48.969Z,16.40
2017-12-21T20:08:17.416Z,16.80
2017-12-21T20:10:46.640Z,16.53
2017-12-21T20:13:15.468Z,17.00
2017-12-21T20:15:43.958Z,17.87
2017-12-21T20:18:13.356Z,18.27
2017-12-21T20:20:42.757Z,17.50
2017-12-21T20:23:12.050Z,17.87
2017-12-21T20:25:41.309Z,18.27
2017-12-21T20:28:09.676Z,18.90
2017-12-21T20:30:56.800Z,16.90
2017-12-21T20:33:25.915Z,16.50
2017-12-21T20:35:54.279Z,18.80
2017-12-21T20:38:22.978Z,18.23
2017-12-21T20:41:04.521Z,17.20
2017-12-21T20:43:32.936Z,17.30
2017-12-21T20:48:53.140Z,16.23
2017-12-21T20:51:21.575Z,18.70
2017-12-21T20:53:51.009Z,16.23
2017-12-21T20:56:20.485Z,19.70
2017-12-21T20:58:52.137Z,15.80
2017-12-21T21:01:20.562Z,18.23
2017-12-21T21:03:48.987Z,19.30
2017-12-21T21:06:17.417Z,17.80
2017-12-21T21:08:45.779Z,18.37
2017-12-21T21:16:20.134Z,18.10
2017-12-21T21:18:48.620Z,19.30
2017-12-21T21:21:16.995Z,18.37
2017-12-21T21:26:36.274Z,17.00
2017-12-21T21:29:04.609Z,18.87
2017-12-21T21:31:32.950Z,18.50
2017-12-21T21:34:01.652Z,17.27
2017-12-21T21:36:30.155Z,15.73
2017-12-21T21:38:58.686Z,16.07
2017-12-21T21:41:27.322Z,17.10
2017-12-21T21:43:56.282Z,15.63
2017-12-21T21:46:26.207Z,17.03
2017-12-21T21:48:57.030Z,15.30
2017-12-21T21:51:26.512Z,16.17
2017-12-21T21:53:59.163Z,15.50
2017-12-21T21:56:27.586Z,16.17
2017-12-21T21:58:55.917Z,16.83
2017-12-21T22:01:25.596Z,16.30
2017-12-21T22:03:54.292Z,14.67
2017-12-21T22:06:22.700Z,15.53
2017-12-21T22:08:51.177Z,16.73
2017-12-21T22:11:21.477Z,16.67
2017-12-21T22:13:50.135Z,15.00
2017-12-21T22:16:18.516Z,13.83
2017-12-21T22:18:46.891Z,13.40
2017-12-21T22:21:15.234Z,15.20
2017-12-21T22:23:43.678Z,14.20
2017-12-21T22:26:12.120Z,16.20
2017-12-21T22:28:40.675Z,16.13
2017-12-21T22:31:10.102Z,15.10
2017-12-21T22:33:38.456Z,14.90
2017-12-21T22:36:06.863Z,16.27
2017-12-21T22:38:35.300Z,15.40
2017-12-21T22:41:09.709Z,14.80
2017-12-21T22:43:40.511Z,16.97
2017-12-21T22:46:09.268Z,15.93
2017-12-21T22:48:37.579Z,15.87
2017-12-21T22:51:05.922Z,16.27
2017-12-21T22:53:34.457Z,15.77
2017-12-21T22:56:02.893Z,14.73
2017-12-21T22:58:31.229Z,15.83
2017-12-21T23:01:00.963Z,16.57
2017-12-21T23:03:31.655Z,16.80
2017-12-21T23:06:01.505Z,15.37
2017-12-21T23:08:30.185Z,15.03
2017-12-21T23:11:02.291Z,14.17
2017-12-21T23:13:31.880Z,15.67
2017-12-21T23:16:01.523Z,14.33
2017-12-21T23:18:31.242Z,13.93
2017-12-21T23:20:59.688Z,12.43
2017-12-21T23:23:28.168Z,14.43
2017-12-21T23:25:56.656Z,14.77
2017-12-21T23:28:27.003Z,14.70
2017-12-21T23:30:55.878Z,14.33
2017-12-21T23:33:24.404Z,13.47
2017-12-21T23:35:57.863Z,13.57
2017-12-21T23:38:27.229Z,13.03
2017-12-21T23:40:56.548Z,14.03
2017-12-21T23:43:38.432Z,13.00
2017-12-21T23:46:06.983Z,12.07
2017-12-21T23:48:35.506Z,14.40
2017-12-21T23:51:04.419Z,15.30
2017-12-21T23:53:34.189Z,13.37
2017-12-21T23:56:02.623Z,15.20
2017-12-21T23:58:31.336Z,15.10
